Time;durP1;ratioP1;P1;durP2;ratioP2;P2;SDS_P1;SDS_P2;PMS_P1;PMS_P2;Temp;Humidity;BMP_temperature;BMP_pressure;BME280_temperature;BME280_humidity;BME280_pressure;Samples;Min_cycle;Max_cycle;Signal;HPM_P1;HPM_P2
2022/02/13 00:00:47;;;;;;;172.67;59.27;;;;;;;;;;5012103;28;20239;-86
2022/02/13 00:03:13;;;;;;;155.57;53.63;;;;;;;;;;5012342;28;20189;-87
2022/02/13 00:05:39;;;;;;;131.00;46.10;;;;;;;;;;4996118;28;20727;-86
2022/02/13 00:08:08;;;;;;;127.33;44.30;;;;;;;;;;5012327;28;20188;-86
2022/02/13 00:10:34;;;;;;;124.57;42.33;;;;;;;;;;5012468;28;20188;-87
2022/02/13 00:13:03;;;;;;;118.30;39.93;;;;;;;;;;5015249;28;20641;-86
2022/02/13 00:15:29;;;;;;;107.20;38.77;;;;;;;;;;5016409;28;20185;-86
2022/02/13 00:17:58;;;;;;;100.20;34.17;;;;;;;;;;5016381;28;20189;-86
2022/02/13 00:20:24;;;;;;;94.87;36.53;;;;;;;;;;5000286;28;20213;-86
2022/02/13 00:22:50;;;;;;;88.63;35.30;;;;;;;;;;5016118;28;20183;-86
2022/02/13 00:25:18;;;;;;;181.20;57.23;;;;;;;;;;5015922;28;20624;-86
2022/02/13 00:27:47;;;;;;;134.33;44.57;;;;;;;;;;5015900;28;20598;-84
2022/02/13 00:30:16;;;;;;;140.13;43.93;;;-4.20;99.90;;;;;;5016031;28;20187;-87
2022/02/13 00:32:43;;;;;;;195.83;62.33;;;;;;;;;;5016141;28;20263;-85
2022/02/13 00:35:17;;;;;;;125.87;41.67;;;;;;;;;;5015930;28;20191;-84
2022/02/13 00:37:43;;;;;;;89.90;35.37;;;-4.20;99.90;;;;;;5015860;28;20184;-86
2022/02/13 00:40:10;;;;;;;136.43;47.07;;;-4.20;99.90;;;;;;5015960;28;20212;-87
2022/02/13 00:42:39;;;;;;;165.27;60.87;;;;;;;;;;4998859;28;20195;-86
2022/02/13 00:45:08;;;;;;;101.43;38.73;;;-4.20;99.90;;;;;;5015824;28;20212;-86
2022/02/13 00:47:34;;;;;;;67.73;28.07;;;;;;;;;;4999522;28;20189;-86
2022/02/13 00:50:02;;;;;;;123.17;44.03;;;;;;;;;;5015842;28;20276;-86
2022/02/13 00:52:30;;;;;;;105.97;39.70;;;;;;;;;;5016287;28;20215;-87
2022/02/13 00:54:56;;;;;;;172.37;61.50;;;;;;;;;;5000297;28;20200;-85
2022/02/13 00:57:22;;;;;;;131.37;50.70;;;;;;;;;;5015252;28;20229;-85
2022/02/13 00:59:48;;;;;;;136.77;50.47;;;;;;;;;;4999503;28;20185;-85
2022/02/13 01:02:14;;;;;;;123.33;46.03;;;;;;;;;;4999251;28;20185;-87
2022/02/13 01:04:43;;;;;;;140.40;51.60;;;;;;;;;;4999235;28;20210;-87
2022/02/13 01:07:11;;;;;;;145.33;48.90;;;-4.40;99.90;;;;;;5015600;28;20190;-86
2022/02/13 01:09:37;;;;;;;172.33;62.07;;;;;;;;;;4999328;28;20255;-87
2022/02/13 01:12:03;;;;;;;191.53;62.60;;;;;;;;;;5014934;28;20185;-87
2022/02/13 01:14:31;;;;;;;145.80;52.47;;;;;;;;;;5015382;28;20185;-87
2022/02/13 01:16:58;;;;;;;143.23;49.57;;;;;;;;;;5015290;28;20182;-86
2022/02/13 01:19:24;;;;;;;133.57;48.70;;;;;;;;;;4998816;28;20595;-86
2022/02/13 01:21:52;;;;;;;143.30;50.47;;;;;;;;;;5014852;28;20197;-86
2022/02/13 01:24:18;;;;;;;114.67;42.23;;;;;;;;;;5014844;28;20212;-86
2022/02/13 01:26:47;;;;;;;183.13;61.67;;;;;;;;;;5014900;28;20655;-86
2022/02/13 01:29:13;;;;;;;123.47;44.00;;;;;;;;;;5016114;28;20436;-86
2022/02/13 01:31:40;;;;;;;168.40;56.63;;;;;;;;;;5015942;28;20188;-86
2022/02/13 01:34:06;;;;;;;140.33;45.47;;;;;;;;;;5015195;28;20181;-86
2022/02/13 01:36:33;;;;;;;109.53;38.43;;;;;;;;;;5014669;28;20764;-86
2022/02/13 01:38:59;;;;;;;99.07;37.90;;;;;;;;;;5016168;28;20189;-85
2022/02/13 01:41:25;;;;;;;103.83;37.57;;;;;;;;;;5015467;28;20185;-87
2022/02/13 01:43:55;;;;;;;101.20;35.47;;;-4.60;99.90;;;;;;5015048;28;20188;-85
2022/02/13 01:46:21;;;;;;;96.53;33.83;;;;;;;;;;5014877;28;20208;-86
2022/02/13 01:48:48;;;;;;;84.97;31.97;;;;;;;;;;5014554;28;20187;-85
2022/02/13 01:51:14;;;;;;;90.37;31.20;;;;;;;;;;4998636;28;20243;-86
2022/02/13 01:53:40;;;;;;;94.43;31.80;;;;;;;;;;4998427;28;20220;-86
2022/02/13 01:56:06;;;;;;;111.00;39.43;;;;;;;;;;4998405;28;20287;-86
2022/02/13 01:58:32;;;;;;;122.03;38.77;;;;;;;;;;5013895;28;20286;-86
2022/02/13 02:00:59;;;;;;;90.77;35.40;;;;;;;;;;5014103;28;20227;-85
2022/02/13 02:03:25;;;;;;;99.80;38.33;;;;;;;;;;5015304;28;20182;-88
2022/02/13 02:05:51;;;;;;;105.87;38.43;;;;;;;;;;5014189;28;20236;-85
2022/02/13 02:08:19;;;;;;;100.80;35.87;;;-4.60;99.90;;;;;;5013896;28;20184;-86
2022/02/13 02:10:51;;;;;;;93.87;35.70;;;-4.70;99.90;;;;;;4997698;28;20213;-86
2022/02/13 02:13:17;;;;;;;124.27;39.37;;;;;;;;;;5015054;28;20165;-86
2022/02/13 02:15:43;;;;;;;109.17;38.87;;;;;;;;;;5013670;28;20188;-86
2022/02/13 02:18:09;;;;;;;106.03;37.67;;;;;;;;;;5013795;28;20239;-86
2022/02/13 02:20:39;;;;;;;90.10;32.30;;;;;;;;;;5013801;28;20203;-86
2022/02/13 02:23:05;;;;;;;78.50;33.27;;;;;;;;;;5014021;28;20626;-86
2022/02/13 02:25:31;;;;;;;106.43;36.20;;;;;;;;;;5014548;28;20295;-87
2022/02/13 02:27:58;;;;;;;104.70;37.00;;;;;;;;;;5013773;28;20177;-86
2022/02/13 02:30:24;;;;;;;115.67;39.50;;;;;;;;;;5014975;28;20179;-86
2022/02/13 02:32:55;;;;;;;106.43;39.33;;;-4.70;99.90;;;;;;5013463;28;20180;-86
2022/02/13 02:35:21;;;;;;;98.20;37.67;;;;;;;;;;5012784;28;20180;-86
2022/02/13 02:37:47;;;;;;;91.80;35.33;;;;;;;;;;5013814;28;20180;-86
2022/02/13 02:40:15;;;;;;;82.07;31.80;;;;;;;;;;5013683;28;20185;-86
2022/02/13 02:42:45;;;;;;;83.67;29.77;;;;;;;;;;5015257;28;20172;-86
2022/02/13 02:45:13;;;;;;;72.73;27.40;;;-4.80;99.90;;;;;;5013843;28;20571;-86
2022/02/13 02:47:42;;;;;;;72.10;26.17;;;-4.80;99.90;;;;;;5014666;28;20661;-86
2022/02/13 02:50:11;;;;;;;84.57;32.13;;;-4.80;99.90;;;;;;5013534;28;20188;-86
2022/02/13 02:52:37;;;;;;;81.00;30.63;;;;;;;;;;4997164;28;20186;-86
2022/02/13 02:55:04;;;;;;;92.30;31.67;;;-4.80;99.90;;;;;;5014044;28;20227;-86
2022/02/13 02:57:30;;;;;;;71.20;30.80;;;;;;;;;;5025192;28;20230;-86
2022/02/13 02:59:56;;;;;;;63.03;26.57;;;;;;;;;;5020453;28;20541;-86
2022/02/13 03:02:22;;;;;;;57.90;22.77;;;;;;;;;;5036642;28;20188;-86
2022/02/13 03:04:48;;;;;;;56.93;22.60;;;;;;;;;;5019960;28;20237;-85
2022/02/13 03:07:14;;;;;;;51.60;21.27;;;;;;;;;;5036617;28;20199;-85
2022/02/13 03:09:40;;;;;;;52.33;21.87;;;;;;;;;;5037121;28;20180;-85
2022/02/13 03:12:07;;;;;;;51.60;20.77;;;;;;;;;;5036191;28;20187;-86
2022/02/13 03:14:33;;;;;;;63.87;25.47;;;;;;;;;;5054040;28;20188;-86
2022/02/13 03:17:01;;;;;;;60.63;25.87;;;;;;;;;;5035917;28;20185;-86
2022/02/13 03:19:27;;;;;;;65.13;27.23;;;;;;;;;;5046908;28;20183;-86
2022/02/13 03:21:53;;;;;;;60.43;23.00;;;;;;;;;;5043463;28;20179;-86
2022/02/13 03:24:19;;;;;;;57.27;23.83;;;;;;;;;;5060628;28;20203;-87
2022/02/13 03:26:45;;;;;;;54.90;22.43;;;;;;;;;;5061093;28;20179;-88
2022/02/13 03:29:11;;;;;;;53.00;21.03;;;;;;;;;;5060999;28;20194;-86
2022/02/13 03:31:39;;;;;;;49.17;20.53;;;;;;;;;;5061107;28;20184;-93
2022/02/13 03:34:08;;;;;;;47.23;19.87;;;;;;;;;;5078114;28;20167;-86
2022/02/13 03:36:34;;;;;;;48.33;20.33;;;;;;;;;;5077950;28;20178;-85
2022/02/13 03:39:04;;;;;;;57.17;23.00;;;;;;;;;;5060518;28;20156;-85
2022/02/13 03:41:30;;;;;;;56.97;22.60;;;;;;;;;;5060783;28;20227;-86
2022/02/13 03:43:56;;;;;;;76.77;26.20;;;;;;;;;;5060210;28;20282;-86
2022/02/13 03:46:22;;;;;;;59.20;22.50;;;;;;;;;;5060461;28;20175;-85
2022/02/13 03:48:48;;;;;;;110.63;37.97;;;;;;;;;;5060031;28;20182;-86
2022/02/13 03:51:15;;;;;;;96.80;35.63;;;;;;;;;;5077520;28;20160;-85
2022/02/13 03:53:44;;;;;;;94.20;34.23;;;;;;;;;;5059736;28;20171;-94
2022/02/13 03:56:10;;;;;;;81.90;31.80;;;;;;;;;;5060293;28;20175;-84
2022/02/13 03:58:38;;;;;;;79.60;27.63;;;;;;;;;;5041347;28;20230;-85
2022/02/13 04:01:06;;;;;;;70.97;25.30;;;-4.80;99.90;;;;;;5054657;28;20172;-86
2022/02/13 04:03:32;;;;;;;62.20;26.53;;;;;;;;;;5036670;28;20180;-85
2022/02/13 04:05:58;;;;;;;59.80;24.47;;;;;;;;;;5054490;28;20215;-84
2022/02/13 04:08:27;;;;;;;57.30;24.90;;;;;;;;;;5036466;28;20221;-86
2022/02/13 04:10:58;;;;;;;55.60;23.07;;;-4.80;99.90;;;;;;5054362;28;20579;-85
2022/02/13 04:13:24;;;;;;;52.00;21.90;;;;;;;;;;5036144;28;20194;-86
2022/02/13 04:15:50;;;;;;;49.03;19.53;;;;;;;;;;5036843;28;20193;-85
2022/02/13 04:18:18;;;;;;;41.97;15.80;;;-4.80;99.90;;;;;;5019994;28;20644;-86
2022/02/13 04:20:45;;;;;;;34.33;15.73;;;;;;;;;;5036548;28;20616;-85
2022/02/13 04:23:11;;;;;;;36.77;17.40;;;;;;;;;;5036214;28;20180;-85
2022/02/13 04:25:37;;;;;;;33.57;14.10;;;-4.70;99.90;;;;;;5020025;28;20242;-86
2022/02/13 04:28:04;;;;;;;27.70;13.23;;;-4.70;99.90;;;;;;5019972;28;20193;-87
2022/02/13 04:30:30;;;;;;;29.53;12.93;;;;;;;;;;5036070;28;20194;-86
2022/02/13 04:32:56;;;;;;;20.73;10.93;;;;;;;;;;5019658;28;20263;-86
2022/02/13 04:35:23;;;;;;;21.80;12.00;;;-4.60;99.90;;;;;;5053124;28;20180;-87
2022/02/13 04:37:52;;;;;;;25.67;10.90;;;-4.60;99.90;;;;;;5018250;28;20218;-86
2022/02/13 04:40:18;;;;;;;24.27;11.17;;;;;;;;;;5034917;28;20539;-85
2022/02/13 04:42:47;;;;;;;22.67;10.33;;;-4.50;99.90;;;;;;5034889;28;20205;-85
2022/02/13 04:45:13;;;;;;;15.70;8.67;;;;;;;;;;5052575;28;20285;-84
2022/02/13 04:47:41;;;;;;;23.27;8.87;;;-4.50;99.90;;;;;;5034662;28;20176;-86
2022/02/13 04:50:08;;;;;;;14.67;6.70;;;-4.50;99.90;;;;;;5034806;28;20270;-86
2022/02/13 04:52:36;;;;;;;17.37;8.53;;;;;;;;;;5018730;28;20179;-86
2022/02/13 04:55:03;;;;;;;17.47;11.33;;;;;;;;;;5018469;28;20196;-86
2022/02/13 04:57:29;;;;;;;19.27;11.90;;;;;;;;;;5018294;28;20263;-86
2022/02/13 04:59:55;;;;;;;26.03;14.97;;;;;;;;;;5038640;28;20180;-86
2022/02/13 05:02:21;;;;;;;25.20;11.13;;;;;;;;;;5023055;28;20723;-86
2022/02/13 05:04:47;;;;;;;19.63;13.23;;;;;;;;;;5038431;28;20217;-87
2022/02/13 05:07:13;;;;;;;24.60;14.77;;;;;;;;;;5022173;28;20188;-86
2022/02/13 05:09:39;;;;;;;19.17;12.20;;;;;;;;;;5039198;28;20200;-86
2022/02/13 05:12:05;;;;;;;18.43;8.70;;;-4.50;99.90;;;;;;5022059;28;20314;-86
2022/02/13 05:14:30;;;;;;;14.27;8.00;;;-4.40;99.90;;;;;;5038193;28;20291;-86
2022/02/13 05:16:56;;;;;;;15.60;8.10;;;;;;;;;;5005139;28;20703;-86
2022/02/13 05:19:22;;;;;;;11.83;6.87;;;;;;;;;;5021776;28;20276;-87
2022/02/13 05:21:54;;;;;;;15.43;6.83;;;;;;;;;;5021918;28;20214;-87
2022/02/13 05:24:20;;;;;;;12.70;6.77;;;;;;;;;;5024438;28;20214;-86
2022/02/13 05:26:46;;;;;;;10.83;6.23;;;;;;;;;;5037686;28;20639;-90
2022/02/13 05:29:12;;;;;;;11.43;5.97;;;-4.20;99.90;;;;;;5022107;28;20183;-86
2022/02/13 05:31:40;;;;;;;13.00;7.10;;;-4.20;99.90;;;;;;5038983;28;20192;-86
2022/02/13 05:34:06;;;;;;;12.53;6.17;;;;;;;;;;5022202;28;20673;-86
2022/02/13 05:36:34;;;;;;;15.17;6.13;;;-4.10;99.90;;;;;;5038411;28;20186;-86
2022/02/13 05:39:00;;;;;;;12.17;5.93;;;;;;;;;;5007139;28;20180;-87
2022/02/13 05:41:26;;;;;;;10.67;5.47;;;;;;;;;;5041006;28;20232;-87
2022/02/13 05:43:52;;;;;;;10.63;5.73;;;;;;;;;;5041826;28;20195;-86
2022/02/13 05:46:18;;;;;;;23.70;9.60;;;;;;;;;;5042031;28;20659;-85
2022/02/13 05:48:45;;;;;;;19.47;8.70;;;;;;;;;;5027093;28;20195;-86
2022/02/13 05:51:15;;;;;;;15.60;8.17;;;-4.00;99.90;;;;;;5061981;28;20183;-86
2022/02/13 05:53:41;;;;;;;23.27;11.10;;;;;;;;;;5028871;28;20184;-86
2022/02/13 05:56:07;;;;;;;19.03;8.67;;;;;;;;;;5026491;28;20623;-84
2022/02/13 05:58:36;;;;;;;21.97;10.47;;;-3.60;99.90;;;;;;5038383;28;20232;-85
2022/02/13 06:01:02;;;;;;;24.43;12.17;;;;;;;;;;5037183;28;20176;-86
2022/02/13 06:03:28;;;;;;;22.03;11.13;;;-3.80;99.90;;;;;;5037635;28;20190;-86
2022/02/13 06:05:53;;;;;;;19.87;11.10;;;-3.70;99.90;;;;;;5020677;28;20633;-85
2022/02/13 06:08:19;;;;;;;31.47;14.43;;;;;;;;;;5037739;28;20188;-85
2022/02/13 06:10:45;;;;;;;24.47;11.33;;;;;;;;;;5020970;28;20275;-86
2022/02/13 06:13:12;;;;;;;25.57;11.33;;;;;;;;;;5020713;28;20192;-86
2022/02/13 06:15:38;;;;;;;21.80;11.73;;;;;;;;;;5055584;28;20215;-87
2022/02/13 06:18:04;;;;;;;22.63;11.53;;;;;;;;;;5056222;28;20183;-91
2022/02/13 06:20:30;;;;;;;19.87;11.23;;;;;;;;;;5079568;28;20186;-86
2022/02/13 06:22:56;;;;;;;33.60;15.63;;;;;;;;;;5046174;28;20189;-87
2022/02/13 06:25:22;;;;;;;32.93;18.00;;;;;;;;;;5037853;28;20290;-86
2022/02/13 06:27:48;;;;;;;28.63;14.97;;;-3.40;99.90;;;;;;5038635;28;20199;-86
2022/02/13 06:30:14;;;;;;;49.70;21.60;;;-3.20;99.90;;;;;;5036616;28;20191;-86
2022/02/13 06:32:40;;;;;;;53.93;23.53;;;-3.30;99.90;;;;;;5027166;28;20251;-86
2022/02/13 06:35:06;;;;;;;75.87;30.37;;;-3.20;99.90;;;;;;5073629;28;20191;-87
2022/02/13 06:37:32;;;;;;;152.77;51.20;;;;;;;;;;5041707;28;20185;-86
2022/02/13 06:39:58;;;;;;;219.63;66.87;;;-3.10;99.90;;;;;;5041220;28;20180;-87
2022/02/13 06:42:25;;;;;;;254.03;74.37;;;;;;;;;;5057557;28;20193;-87
2022/02/13 06:44:51;;;;;;;175.57;60.43;;;;;;;;;;5040378;28;20287;-87
2022/02/13 06:47:22;;;;;;;162.50;60.73;;;-2.90;99.90;;;;;;5074022;28;20179;-87
2022/02/13 06:49:50;;;;;;;109.90;44.87;;;-2.80;99.90;;;;;;5057391;28;20675;-86
2022/02/13 06:52:16;;;;;;;109.90;44.73;;;;;;;;;;5059045;28;20185;-85
2022/02/13 06:54:43;;;;;;;72.90;30.60;;;;;;;;;;5076473;28;20175;-86
2022/02/13 06:57:09;;;;;;;83.03;32.57;;;;;;;;;;5075069;28;20183;-87
2022/02/13 06:59:35;;;;;;;67.23;27.07;;;;;;;;;;5074337;28;20680;-86
2022/02/13 07:02:01;;;;;;;60.50;24.53;;;;;;;;;;5073198;28;20275;-87
2022/02/13 07:04:27;;;;;;;68.20;25.07;;;;;;;;;;5039781;28;20263;-86
2022/02/13 07:06:55;;;;;;;73.80;25.17;;;;;;;;;;5074519;28;20196;-86
2022/02/13 07:09:22;;;;;;;69.90;24.00;;;;;;;;;;5074569;28;20202;-86
2022/02/13 07:11:48;;;;;;;78.03;28.97;;;;;;;;;;5073753;28;20632;-86
2022/02/13 07:14:14;;;;;;;72.33;32.40;;;;;;;;;;5073601;28;20657;-86
2022/02/13 07:16:42;;;;;;;91.33;40.43;;;;;;;;;;5073120;28;20181;-86
2022/02/13 07:19:10;;;;;;;57.90;25.33;;;;;;;;;;5073052;28;20274;-87
2022/02/13 07:21:36;;;;;;;70.33;27.63;;;;;;;;;;5072668;28;20205;-86
2022/02/13 07:24:04;;;;;;;58.87;25.97;;;;;;;;;;5072843;28;20181;-85
2022/02/13 07:26:32;;;;;;;49.80;21.97;;;;;;;;;;5072860;28;20207;-85
2022/02/13 07:29:01;;;;;;;58.80;24.90;;;;;;;;;;5056208;28;20187;-84
2022/02/13 07:31:33;;;;;;;67.80;25.43;;;-1.10;99.90;;;;;;5054377;28;20195;-86
2022/02/13 07:34:02;;;;;;;49.90;20.60;;;0.60;99.90;;;;;;5054251;28;20181;-83
2022/02/13 07:36:29;;;;;;;41.80;15.17;;;;;;;;;;5036330;28;20194;-86
2022/02/13 07:38:58;;;;;;;56.60;25.70;;;;;;;;;;5035889;28;20177;-86
2022/02/13 07:41:25;;;;;;;25.97;12.60;;;;;;;;;;5020204;28;20190;-86
2022/02/13 07:43:53;;;;;;;37.77;16.63;;;-0.70;99.90;;;;;;5054204;28;20592;-86
2022/02/13 07:46:20;;;;;;;45.67;20.67;;;-0.60;99.90;;;;;;5055036;28;20208;-90
2022/02/13 07:48:48;;;;;;;35.07;15.53;;;;;;;;;;5037194;28;20186;-88
2022/02/13 07:51:15;;;;;;;40.50;18.20;;;;;;;;;;5036744;28;20190;-87
2022/02/13 07:53:41;;;;;;;33.20;14.27;;;;;;;;;;5020327;28;20231;-89
2022/02/13 07:56:19;;;;;;;21.87;11.07;;;-0.30;99.90;;;;;;5036471;28;20215;-88
2022/02/13 07:58:56;;;;;;;25.13;15.80;;;-0.20;99.90;;;;;;5021802;28;20502;-90
2022/02/13 08:01:24;;;;;;;20.47;8.97;;;;;;;;;;5043154;28;20199;-90
2022/02/13 08:03:52;;;;;;;22.93;9.80;;;;;;;;;;5037638;28;20183;-91
2022/02/13 08:06:19;;;;;;;24.70;10.70;;;;;;;;;;5048519;28;20214;-89
2022/02/13 08:08:48;;;;;;;17.13;8.00;;;0.10;99.90;;;;;;5064821;28;20172;-89
2022/02/13 08:11:20;;;;;;;14.03;6.37;;;0.10;99.90;;;;;;5026357;28;20194;-90
2022/02/13 08:13:46;;;;;;;37.27;15.23;;;0.20;99.90;;;;;;5037066;28;20176;-90
2022/02/13 08:16:13;;;;;;;31.90;13.33;;;;;;;;;;5036254;28;20200;-88
2022/02/13 08:18:39;;;;;;;35.20;15.43;;;;;;;;;;5037937;28;20176;-88
2022/02/13 08:21:14;;;;;;;32.10;17.20;;;0.50;99.90;;;;;;5072314;28;20273;-88
2022/02/13 08:23:40;;;;;;;20.33;10.50;;;;;;;;;;5051895;28;20182;-88
2022/02/13 08:26:08;;;;;;;19.83;10.47;;;2.20;99.90;;;;;;5053706;28;20232;-87
2022/02/13 08:28:37;;;;;;;15.97;8.50;;;;;;;;;;5047573;28;20186;-87
2022/02/13 08:31:04;;;;;;;16.47;8.50;;;1.00;99.90;;;;;;5046896;28;20205;-87
2022/02/13 08:33:30;;;;;;;17.27;7.33;;;;;;;;;;5048556;28;20181;-87
2022/02/13 08:36:04;;;;;;;15.77;7.87;;;1.10;99.90;;;;;;5042038;28;20187;-87
2022/02/13 08:38:30;;;;;;;32.70;13.57;;;;;;;;;;5042551;28;20193;-87
2022/02/13 08:40:58;;;;;;;13.53;8.03;;;1.30;99.90;;;;;;5044858;28;20199;-86
2022/02/13 08:43:25;;;;;;;15.87;6.57;;;;;;;;;;5031965;28;20257;-86
2022/02/13 08:45:54;;;;;;;12.17;6.30;;;;;;;;;;5028826;28;20199;-87
2022/02/13 08:48:21;;;;;;;17.60;7.77;;;;;;;;;;5046500;28;20295;-86
2022/02/13 08:50:47;;;;;;;11.03;4.90;;;;;;;;;;5031280;28;20194;-87
2022/02/13 08:53:16;;;;;;;12.60;7.00;;;1.40;99.90;;;;;;5055732;28;20176;-86
2022/02/13 08:55:47;;;;;;;9.83;5.73;;;1.40;99.90;;;;;;5057038;28;20236;-88
2022/02/13 08:58:14;;;;;;;15.47;8.07;;;;;;;;;;5044216;28;20266;-87
2022/02/13 09:00:40;;;;;;;14.00;8.27;;;;;;;;;;5062023;28;20178;-87
2022/02/13 09:03:06;;;;;;;19.37;10.13;;;;;;;;;;5048961;28;20179;-87
2022/02/13 09:05:34;;;;;;;18.07;8.60;;;;;;;;;;5071913;28;20659;-85
2022/02/13 09:08:04;;;;;;;8.47;5.30;;;;;;;;;;5070534;28;20184;-88
2022/02/13 09:10:40;;;;;;;;;;;;;;;;;;;;;
2022/02/13 09:13:11;;;;;;;8.40;5.47;;;;;;;;;;5045650;28;20266;-88
2022/02/13 09:15:37;;;;;;;10.20;6.60;;;;;;;;;;5047512;28;20274;-86
2022/02/13 09:18:04;;;;;;;13.97;5.77;;;;;;;;;;5039300;28;20628;-88
2022/02/13 09:20:30;;;;;;;21.00;6.93;;;;;;;;;;5050962;28;20186;-87
2022/02/13 09:22:56;;;;;;;17.87;6.40;;;;;;;;;;5039930;28;20218;-86
2022/02/13 09:25:22;;;;;;;15.10;6.53;;;;;;;;;;5023236;28;20218;-88
2022/02/13 09:27:51;;;;;;;21.07;7.20;;;;;;;;;;5039300;28;20271;-88
2022/02/13 09:30:17;;;;;;;11.80;6.40;;;;;;;;;;5040543;28;20233;-87
2022/02/13 09:32:43;;;;;;;8.33;4.47;;;;;;;;;;5043812;28;20520;-88
2022/02/13 09:35:09;;;;;;;7.80;4.63;;;;;;;;;;5038554;28;20292;-87
2022/02/13 09:37:35;;;;;;;13.43;6.40;;;;;;;;;;5037787;28;20188;-87
2022/02/13 09:40:01;;;;;;;18.60;8.50;;;;;;;;;;5038229;28;20221;-85
2022/02/13 09:42:28;;;;;;;13.00;6.60;;;;;;;;;;5037603;28;20221;-85
2022/02/13 09:44:54;;;;;;;16.03;8.47;;;;;;;;;;5037124;28;20211;-86
2022/02/13 09:47:24;;;;;;;10.73;5.50;;;2.60;98.30;;;;;;5037450;28;20214;-84
2022/02/13 09:49:50;;;;;;;7.50;4.23;;;;;;;;;;5021332;28;20184;-86
2022/02/13 09:52:16;;;;;;;10.80;5.70;;;;;;;;;;5021161;28;20254;-86
2022/02/13 09:54:42;;;;;;;16.20;6.80;;;;;;;;;;5037481;28;20279;-86
2022/02/13 09:59:54;;;;;;;21.87;10.03;;;3.10;97.80;;;;;;5056682;28;20195;-87
2022/02/13 10:02:42;;;;;;;13.63;6.23;;;3.30;98.20;;;;;;5038068;28;20206;-87
2022/02/13 10:05:13;;;;;;;13.37;6.00;;;3.40;96.10;;;;;;5037652;28;20208;-87
2022/02/13 10:07:40;;;;;;;11.67;5.90;;;3.40;97.20;;;;;;5038305;28;20512;-89
2022/02/13 10:10:10;;;;;;;9.47;5.60;;;3.50;95.60;;;;;;5038374;28;20703;-88
2022/02/13 10:12:42;;;;;;;9.70;5.57;;;3.50;93.90;;;;;;5044892;28;20187;-88
2022/02/13 10:15:44;;;;;;;10.10;5.50;;;3.50;92.30;;;;;;5060681;28;20181;-87
2022/02/13 10:18:10;;;;;;;10.93;5.23;;;;;;;;;;5052962;28;20239;-87
2022/02/13 10:20:42;;;;;;;8.80;5.40;;;3.90;89.20;;;;;;5038929;28;20179;-88
2022/02/13 10:23:15;;;;;;;10.57;5.17;;;4.00;92.10;;;;;;5039616;28;20194;-87
2022/02/13 10:25:43;;;;;;;12.40;5.63;;;4.10;90.50;;;;;;5028170;28;20227;-89
2022/02/13 10:28:14;;;;;;;14.90;6.80;;;4.20;89.10;;;;;;5060888;28;20200;-88
2022/02/13 10:31:03;;;;;;;13.53;6.03;;;4.30;90.70;;;;;;5062495;28;20230;-87
2022/02/13 10:33:29;;;;;;;11.80;5.33;;;;;;;;;;5062111;28;20197;-88
2022/02/13 10:36:05;;;;;;;6.67;3.70;;;4.20;84.70;;;;;;5079076;28;20172;-90
2022/02/13 10:38:35;;;;;;;7.80;4.80;;;4.20;90.70;;;;;;5061700;28;20170;-88
2022/02/13 10:41:20;;;;;;;10.90;4.93;;;4.40;90.50;;;;;;5061543;28;20166;-87
2022/02/13 10:43:51;;;;;;;6.47;4.07;;;4.30;94.00;;;;;;5061783;28;20173;-87
2022/02/13 10:46:20;;;;;;;8.63;5.43;;;4.60;89.70;;;;;;5045401;28;20274;-88
2022/02/13 10:48:47;;;;;;;9.23;4.77;;;;;;;;;;5062067;28;20180;-89
2022/02/13 10:51:18;;;;;;;9.57;4.73;;;4.70;88.80;;;;;;5061962;28;20254;-88
2022/02/13 10:53:45;;;;;;;6.90;4.33;;;;;;;;;;5045479;28;20199;-87
2022/02/13 10:56:11;;;;;;;9.30;4.73;;;;;;;;;;5060686;28;20228;-88
2022/02/13 10:58:38;;;;;;;12.13;5.57;;;4.60;84.70;;;;;;5048339;28;20243;-91
2022/02/13 11:01:15;;;;;;;15.27;6.40;;;6.70;84.10;;;;;;5021052;28;20346;-88
2022/02/13 11:06:39;;;;;;;7.47;4.17;;;4.50;82.60;;;;;;5016991;28;20735;-89
2022/02/13 11:09:23;;;;;;;10.87;5.13;;;4.50;82.50;;;;;;5017173;28;20676;-87
2022/02/13 11:11:54;;;;;;;9.87;4.70;;;4.30;86.30;;;;;;5015860;28;20181;-90
2022/02/13 11:14:24;;;;;;;16.13;5.20;;;4.30;83.30;;;;;;5015801;28;20180;-88
2022/02/13 11:16:50;;;;;;;16.73;5.47;;;;;;;;;;5014901;28;20207;-89
2022/02/13 11:19:17;;;;;;;11.97;5.20;;;4.20;83.50;;;;;;5015599;28;20177;-88
2022/02/13 11:21:46;;;;;;;15.23;6.80;;;;;;;;;;5002181;28;20185;-88
2022/02/13 11:24:24;;;;;;;13.07;5.77;;;4.30;85.70;;;;;;5020937;28;20169;-88
2022/02/13 11:26:51;;;;;;;12.07;6.27;;;;;;;;;;5019970;28;20184;-86
2022/02/13 11:29:17;;;;;;;15.03;6.80;;;;;;;;;;5022176;28;20181;-88
2022/02/13 11:31:50;;;;;;;14.13;6.73;;;4.50;83.00;;;;;;5022544;28;20187;-88
2022/02/13 11:34:19;;;;;;;16.40;6.10;;;;;;;;;;5023799;28;20172;-86
2022/02/13 11:36:51;;;;;;;12.90;6.50;;;4.60;78.20;;;;;;5024533;28;20177;-89
2022/02/13 11:39:41;;;;;;;15.97;6.33;;;4.60;81.40;;;;;;5026052;28;20204;-88
2022/02/13 11:42:19;;;;;;;11.77;5.97;;;4.80;80.30;;;;;;5028132;28;20180;-88
2022/02/13 11:44:57;;;;;;;18.10;6.90;;;4.90;81.90;;;;;;5012487;28;20209;-87
2022/02/13 11:47:51;;;;;;;11.67;5.53;;;5.30;77.50;;;;;;5026001;28;20189;-88
2022/02/13 11:50:24;;;;;;;10.17;5.23;;;5.70;72.60;;;;;;5027034;28;20192;-89
2022/02/13 11:53:07;;;;;;;10.77;5.40;;;6.00;69.70;;;;;;5010500;28;20181;-88
2022/02/13 11:55:37;;;;;;;12.00;5.33;;;6.10;70.90;;;;;;5023728;28;20185;-88
2022/02/13 11:58:14;;;;;;;12.93;5.80;;;6.00;70.50;;;;;;5023665;28;20232;-88
2022/02/13 12:00:51;;;;;;;13.63;6.70;;;6.00;74.50;;;;;;5017187;28;20647;-89
2022/02/13 12:03:17;;;;;;;13.63;6.77;;;;;;;;;;5016598;28;20185;-88
2022/02/13 12:06:11;;;;;;;9.67;5.23;;;6.20;72.80;;;;;;5021013;28;20209;-88
2022/02/13 12:08:44;;;;;;;14.17;7.23;;;6.50;72.30;;;;;;5010695;28;20255;-90
2022/02/13 12:11:18;;;;;;;13.83;6.17;;;;;;;;;;5026121;28;20181;-88
2022/02/13 12:13:46;;;;;;;15.20;6.87;;;;;;;;;;5026696;28;20177;-88
2022/02/13 12:16:15;;;;;;;18.03;8.57;;;8.00;65.90;;;;;;5025656;28;20189;-89
2022/02/13 12:18:41;;;;;;;11.33;6.77;;;;;;;;;;5026324;28;20188;-90
2022/02/13 12:21:18;;;;;;;10.33;4.90;;;8.70;63.30;;;;;;5008310;28;20547;-88
2022/02/13 12:23:44;;;;;;;14.73;6.67;;;;;;;;;;5012625;28;20278;-88
2022/02/13 12:26:10;;;;;;;11.97;6.17;;;;;;;;;;5040067;28;20214;-87
2022/02/13 12:28:38;;;;;;;33.00;11.77;;;7.80;64.40;;;;;;5042452;28;20553;-87
2022/02/13 12:31:07;;;;;;;42.53;25.77;;;7.90;63.60;;;;;;5025244;28;20275;-86
2022/02/13 12:33:50;;;;;;;18.23;9.20;;;7.80;63.40;;;;;;5042577;28;20204;-89
2022/02/13 12:36:22;;;;;;;39.27;15.70;;;7.80;65.20;;;;;;5045590;28;20191;-90
2022/02/13 12:38:55;;;;;;;34.23;15.13;;;7.80;65.70;;;;;;5043557;28;20180;-90
2022/02/13 12:41:22;;;;;;;24.93;11.47;;;;;;;;;;5041685;28;20184;-90
2022/02/13 12:43:50;;;;;;;38.53;15.93;;;7.50;65.50;;;;;;5039040;28;20188;-90
2022/02/13 12:46:19;;;;;;;20.93;10.07;;;7.50;66.60;;;;;;5023693;28;20274;-89
2022/02/13 12:48:47;;;;;;;27.53;11.60;;;7.60;66.50;;;;;;5025750;28;20184;-92
2022/02/13 12:51:16;;;;;;;35.97;14.73;;;;;;;;;;5006989;28;20193;-90
2022/02/13 12:53:46;;;;;;;33.43;15.07;;;7.90;65.10;;;;;;5023312;28;20208;-91
2022/02/13 12:56:15;;;;;;;13.60;6.40;;;;;;;;;;5010211;28;20276;-90
2022/02/13 12:58:44;;;;;;;18.97;8.70;;;;;;;;;;5020882;28;20233;-89
2022/02/13 13:01:14;;;;;;;26.53;11.13;;;;;;;;;;5021987;28;20189;-91
2022/02/13 13:03:42;;;;;;;15.63;7.37;;;;;;;;;;5024404;28;20177;-92
2022/02/13 13:06:08;;;;;;;21.87;7.87;;;8.20;68.50;;;;;;5006446;28;20236;-91
2022/02/13 13:08:45;;;;;;;21.90;7.30;;;8.40;64.90;;;;;;5020455;28;20637;-90
2022/02/13 13:11:13;;;;;;;21.03;8.60;;;;;;;;;;5021632;28;20200;-89
2022/02/13 13:13:40;;;;;;;40.43;16.70;;;8.80;62.60;;;;;;5019927;28;20629;-89
2022/02/13 13:16:09;;;;;;;28.73;13.43;;;;;;;;;;5004143;28;20185;-88
2022/02/13 13:18:40;;;;;;;41.23;17.23;;;9.30;62.30;;;;;;5018553;28;20601;-86
2022/02/13 13:21:38;;;;;;;57.73;21.93;;;10.00;60.80;;;;;;5018157;28;20244;-88
2022/02/13 13:24:18;;;;;;;58.90;24.03;;;10.00;61.20;;;;;;5017644;28;20225;-89
2022/02/13 13:26:49;;;;;;;66.67;25.00;;;10.70;60.90;;;;;;5018355;28;20535;-89
2022/02/13 13:29:39;;;;;;;;;;;;;;;;;;;;;
2022/02/13 13:32:09;;;;;;;65.35;29.13;;;11.30;56.40;;;;;;5022089;28;20246;-88
2022/02/13 13:34:43;;;;;;;54.42;24.63;;;11.00;58.70;;;;;;5020674;28;20196;-89
2022/02/13 13:37:30;;;;;;;84.80;35.22;;;12.00;55.50;;;;;;5018110;28;20272;-87
2022/02/13 13:40:16;;;;;;;87.15;36.95;;;12.80;53.40;;;;;;5019070;28;20177;-88
2022/02/13 13:42:54;;;;;;;75.40;33.83;;;13.00;52.40;;;;;;5017600;28;20179;-87
2022/02/13 13:45:34;;;;;;;56.70;23.27;;;12.90;52.80;;;;;;5016610;28;20658;-88
2022/02/13 13:48:00;;;;;;;62.88;26.65;;;13.40;52.20;;;;;;5014292;28;20185;-86
2022/02/13 13:50:36;;;;;;;56.03;25.02;;;13.40;51.70;;;;;;5016865;28;20228;-88
2022/02/13 13:53:08;;;;;;;41.22;18.60;;;13.60;52.10;;;;;;5016821;28;20169;-87